sensor_id;sensor_type;location;lat;lon;timestamp;pressure;altitude;pressure_sealevel;temperature;humidity
38530;BME280;24301;54.332;48.386;2023-05-16T00:01:09;99429.19;;;10.91;100.00
38530;BME280;24301;54.332;48.386;2023-05-16T00:03:35;99431.84;;;10.90;100.00
38530;BME280;24301;54.332;48.386;2023-05-16T00:06:03;99438.84;;;10.89;100.00
38530;BME280;24301;54.332;48.386;2023-05-16T00:08:30;99438.84;;;10.89;100.00
38530;BME280;24301;54.332;48.386;2023-05-16T00:10:56;99437.09;;;10.90;100.00
38530;BME280;24301;54.332;48.386;2023-05-16T00:13:22;99444.94;;;10.95;100.00
38530;BME280;24301;54.332;48.386;2023-05-16T00:15:51;99441.44;;;10.94;100.00
38530;BME280;24301;54.332;48.386;2023-05-16T00:18:18;99445.00;;;10.88;100.00
38530;BME280;24301;54.332;48.386;2023-05-16T00:20:44;99435.38;;;10.86;100.00
38530;BME280;24301;54.332;48.386;2023-05-16T00:23:10;99445.88;;;10.87;100.00
38530;BME280;24301;54.332;48.386;2023-05-16T00:25:37;99432.75;;;10.84;100.00
38530;BME280;24301;54.332;48.386;2023-05-16T00:28:03;99436.28;;;10.83;100.00
38530;BME280;24301;54.332;48.386;2023-05-16T00:30:30;99449.41;;;10.85;100.00
38530;BME280;24301;54.332;48.386;2023-05-16T00:32:56;99445.03;;;10.85;100.00
38530;BME280;24301;54.332;48.386;2023-05-16T00:35:22;99460.81;;;10.85;100.00
38530;BME280;24301;54.332;48.386;2023-05-16T00:37:49;99452.94;;;10.81;100.00
38530;BME280;24301;54.332;48.386;2023-05-16T00:40:15;99440.72;;;10.76;100.00
38530;BME280;24301;54.332;48.386;2023-05-16T00:42:42;99459.88;;;10.91;100.00
38530;BME280;24301;54.332;48.386;2023-05-16T00:45:08;99463.34;;;10.95;100.00
38530;BME280;24301;54.332;48.386;2023-05-16T00:47:35;99472.09;;;10.98;100.00
38530;BME280;24301;54.332;48.386;2023-05-16T00:50:02;99475.56;;;11.00;100.00
38530;BME280;24301;54.332;48.386;2023-05-16T00:52:31;99466.78;;;11.04;100.00
38530;BME280;24301;54.332;48.386;2023-05-16T00:54:58;99468.50;;;11.07;100.00
38530;BME280;24301;54.332;48.386;2023-05-16T00:57:24;99466.78;;;11.04;100.00
38530;BME280;24301;54.332;48.386;2023-05-16T00:59:51;99472.09;;;10.98;100.00
38530;BME280;24301;54.332;48.386;2023-05-16T01:02:17;99459.81;;;10.96;100.00
38530;BME280;24301;54.332;48.386;2023-05-16T01:04:45;99465.06;;;11.00;100.00
38530;BME280;24301;54.332;48.386;2023-05-16T01:07:13;99467.69;;;10.99;100.00
38530;BME280;24301;54.332;48.386;2023-05-16T01:09:39;99463.31;;;10.99;100.00
38530;BME280;24301;54.332;48.386;2023-05-16T01:12:22;99483.47;;;11.02;100.00
38530;BME280;24301;54.332;48.386;2023-05-16T01:15:08;99471.16;;;11.07;100.00
38530;BME280;24301;54.332;48.386;2023-05-16T01:20:43;99492.94;;;11.20;100.00
38530;BME280;24301;54.332;48.386;2023-05-16T01:28:44;99475.84;;;11.63;100.00
38530;BME280;24301;54.332;48.386;2023-05-16T01:31:11;99476.44;;;11.90;100.00
38530;BME280;24301;54.332;48.386;2023-05-16T01:33:37;99475.31;;;12.13;100.00
38530;BME280;24301;54.332;48.386;2023-05-16T01:39:00;99494.16;;;12.47;100.00
38530;BME280;24301;54.332;48.386;2023-05-16T01:41:38;99490.53;;;12.56;100.00
38530;BME280;24301;54.332;48.386;2023-05-16T01:47:15;99488.47;;;12.75;96.50
38530;BME280;24301;54.332;48.386;2023-05-16T01:49:50;99493.25;;;13.08;95.67
38530;BME280;24301;54.332;48.386;2023-05-16T01:55:14;99501.56;;;12.83;92.36
38530;BME280;24301;54.332;48.386;2023-05-16T01:57:42;99492.22;;;12.60;91.97
38530;BME280;24301;54.332;48.386;2023-05-16T02:00:11;99495.97;;;12.44;93.67
38530;BME280;24301;54.332;48.386;2023-05-16T02:02:40;99495.28;;;12.29;94.25
38530;BME280;24301;54.332;48.386;2023-05-16T02:05:08;99491.81;;;12.24;95.14
38530;BME280;24301;54.332;48.386;2023-05-16T02:07:35;99481.34;;;12.21;95.39
38530;BME280;24301;54.332;48.386;2023-05-16T02:10:01;99493.47;;;12.33;96.31
38530;BME280;24301;54.332;48.386;2023-05-16T02:12:30;99490.28;;;12.72;96.68
38530;BME280;24301;54.332;48.386;2023-05-16T02:14:55;99487.44;;;13.39;95.30
38530;BME280;24301;54.332;48.386;2023-05-16T02:17:21;99482.06;;;13.92;90.29
38530;BME280;24301;54.332;48.386;2023-05-16T02:19:47;99503.53;;;14.18;86.87
38530;BME280;24301;54.332;48.386;2023-05-16T02:22:13;99478.59;;;14.31;84.31
38530;BME280;24301;54.332;48.386;2023-05-16T02:24:39;99485.41;;;14.42;82.97
38530;BME280;24301;54.332;48.386;2023-05-16T02:27:05;99487.91;;;14.08;82.41
38530;BME280;24301;54.332;48.386;2023-05-16T02:29:31;99483.22;;;14.21;84.20
38530;BME280;24301;54.332;48.386;2023-05-16T02:31:57;99495.44;;;14.66;83.19
38530;BME280;24301;54.332;48.386;2023-05-16T02:34:23;99487.81;;;14.92;79.64
38530;BME280;24301;54.332;48.386;2023-05-16T02:36:48;99490.16;;;15.39;78.43
38530;BME280;24301;54.332;48.386;2023-05-16T02:39:15;99494.91;;;15.61;76.05
38530;BME280;24301;54.332;48.386;2023-05-16T02:41:41;99494.88;;;15.96;75.65
38530;BME280;24301;54.332;48.386;2023-05-16T02:44:07;99510.50;;;16.35;73.93
38530;BME280;24301;54.332;48.386;2023-05-16T02:46:34;99512.16;;;16.67;72.43
38530;BME280;24301;54.332;48.386;2023-05-16T02:49:03;99499.00;;;16.93;70.12
38530;BME280;24301;54.332;48.386;2023-05-16T02:51:29;99512.09;;;16.98;68.43
38530;BME280;24301;54.332;48.386;2023-05-16T02:53:55;99509.72;;;17.17;68.39
38530;BME280;24301;54.332;48.386;2023-05-16T02:56:27;99515.66;;;17.52;66.89
38530;BME280;24301;54.332;48.386;2023-05-16T02:58:54;99513.66;;;18.09;66.29
38530;BME280;24301;54.332;48.386;2023-05-16T03:01:20;99513.25;;;18.66;64.04
38530;BME280;24301;54.332;48.386;2023-05-16T03:03:46;99518.41;;;19.16;61.87
38530;BME280;24301;54.332;48.386;2023-05-16T03:06:12;99509.78;;;19.31;60.03
38530;BME280;24301;54.332;48.386;2023-05-16T03:08:38;99509.19;;;19.66;59.28
38530;BME280;24301;54.332;48.386;2023-05-16T03:11:04;99514.06;;;19.56;57.58
38530;BME280;24301;54.332;48.386;2023-05-16T03:13:30;99509.97;;;19.89;57.45
38530;BME280;24301;54.332;48.386;2023-05-16T03:15:58;99523.81;;;20.18;56.07
38530;BME280;24301;54.332;48.386;2023-05-16T03:18:25;99518.13;;;20.45;55.46
38530;BME280;24301;54.332;48.386;2023-05-16T03:20:51;99514.53;;;20.46;54.40
38530;BME280;24301;54.332;48.386;2023-05-16T03:23:19;99509.88;;;19.90;53.56
38530;BME280;24301;54.332;48.386;2023-05-16T03:25:45;99519.09;;;18.99;55.58
38530;BME280;24301;54.332;48.386;2023-05-16T03:28:11;99530.13;;;19.34;55.49
38530;BME280;24301;54.332;48.386;2023-05-16T03:30:37;99521.84;;;20.02;54.34
38530;BME280;24301;54.332;48.386;2023-05-16T03:33:03;99534.28;;;20.22;52.62
38530;BME280;24301;54.332;48.386;2023-05-16T03:35:34;99533.66;;;20.36;51.81
38530;BME280;24301;54.332;48.386;2023-05-16T03:38:01;99536.31;;;20.94;50.87
38530;BME280;24301;54.332;48.386;2023-05-16T03:40:27;99535.09;;;21.01;50.19
38530;BME280;24301;54.332;48.386;2023-05-16T03:42:53;99532.25;;;20.66;51.00
38530;BME280;24301;54.332;48.386;2023-05-16T03:45:19;99542.94;;;21.04;50.07
38530;BME280;24301;54.332;48.386;2023-05-16T03:47:45;99545.44;;;21.79;49.18
38530;BME280;24301;54.332;48.386;2023-05-16T03:50:13;99533.41;;;22.56;47.47
38530;BME280;24301;54.332;48.386;2023-05-16T03:52:39;99541.81;;;22.32;46.86
38530;BME280;24301;54.332;48.386;2023-05-16T03:55:05;99543.19;;;21.17;48.38
38530;BME280;24301;54.332;48.386;2023-05-16T03:57:32;99539.63;;;20.61;50.44
38530;BME280;24301;54.332;48.386;2023-05-16T03:59:59;99537.56;;;20.48;51.46
38530;BME280;24301;54.332;48.386;2023-05-16T04:02:25;99542.28;;;21.36;50.25
38530;BME280;24301;54.332;48.386;2023-05-16T04:04:51;99542.53;;;21.49;48.66
38530;BME280;24301;54.332;48.386;2023-05-16T04:07:17;99525.13;;;21.93;48.01
38530;BME280;24301;54.332;48.386;2023-05-16T04:09:43;99533.66;;;22.17;47.10
38530;BME280;24301;54.332;48.386;2023-05-16T04:12:08;99533.00;;;21.78;46.86
38530;BME280;24301;54.332;48.386;2023-05-16T04:14:34;99529.59;;;21.04;48.60
38530;BME280;24301;54.332;48.386;2023-05-16T04:17:00;99538.53;;;21.03;48.52
38530;BME280;24301;54.332;48.386;2023-05-16T04:19:26;99544.63;;;20.68;49.44
38530;BME280;24301;54.332;48.386;2023-05-16T04:21:52;99540.56;;;21.35;48.77
38530;BME280;24301;54.332;48.386;2023-05-16T04:24:18;99548.94;;;21.98;46.95
38530;BME280;24301;54.332;48.386;2023-05-16T04:26:44;99553.94;;;22.55;45.48
38530;BME280;24301;54.332;48.386;2023-05-16T04:29:10;99549.41;;;22.39;45.38
38530;BME280;24301;54.332;48.386;2023-05-16T04:31:36;99557.25;;;22.27;45.70
38530;BME280;24301;54.332;48.386;2023-05-16T04:34:02;99549.38;;;22.89;45.11
38530;BME280;24301;54.332;48.386;2023-05-16T04:36:28;99540.56;;;22.55;45.31
38530;BME280;24301;54.332;48.386;2023-05-16T04:38:55;99555.34;;;21.77;46.92
38530;BME280;24301;54.332;48.386;2023-05-16T04:41:22;99566.66;;;21.82;47.36
38530;BME280;24301;54.332;48.386;2023-05-16T04:43:48;99555.00;;;22.01;47.11
38530;BME280;24301;54.332;48.386;2023-05-16T04:46:14;99556.00;;;22.16;46.63
38530;BME280;24301;54.332;48.386;2023-05-16T04:48:40;99546.19;;;22.66;45.55
38530;BME280;24301;54.332;48.386;2023-05-16T04:51:06;99554.72;;;21.90;45.35
38530;BME280;24301;54.332;48.386;2023-05-16T04:53:32;99569.69;;;21.22;46.59
38530;BME280;24301;54.332;48.386;2023-05-16T04:55:59;99559.56;;;19.51;49.87
38530;BME280;24301;54.332;48.386;2023-05-16T04:58:25;99559.44;;;18.65;53.12
38530;BME280;24301;54.332;48.386;2023-05-16T05:00:51;99585.16;;;18.41;55.04
38530;BME280;24301;54.332;48.386;2023-05-16T05:03:17;99559.75;;;18.56;54.69
38530;BME280;24301;54.332;48.386;2023-05-16T05:05:43;99560.63;;;19.68;52.19
38530;BME280;24301;54.332;48.386;2023-05-16T05:08:10;99573.09;;;20.49;49.42
38530;BME280;24301;54.332;48.386;2023-05-16T05:10:36;99560.25;;;20.19;49.13
38530;BME280;24301;54.332;48.386;2023-05-16T05:13:02;99556.38;;;20.64;48.35
38530;BME280;24301;54.332;48.386;2023-05-16T05:15:29;99558.66;;;21.10;47.01
38530;BME280;24301;54.332;48.386;2023-05-16T05:17:55;99570.78;;;21.72;46.24
38530;BME280;24301;54.332;48.386;2023-05-16T05:20:21;99566.38;;;21.89;45.86
38530;BME280;24301;54.332;48.386;2023-05-16T05:22:49;99568.28;;;22.54;44.60
38530;BME280;24301;54.332;48.386;2023-05-16T05:25:15;99553.88;;;22.39;43.83
38530;BME280;24301;54.332;48.386;2023-05-16T05:27:41;99577.00;;;21.73;44.45
38530;BME280;24301;54.332;48.386;2023-05-16T05:30:07;99569.94;;;21.52;45.38
38530;BME280;24301;54.332;48.386;2023-05-16T05:32:33;99575.72;;;22.31;44.39
38530;BME280;24301;54.332;48.386;2023-05-16T05:34:58;99564.94;;;22.50;43.16
38530;BME280;24301;54.332;48.386;2023-05-16T05:37:25;99554.94;;;22.36;42.54
38530;BME280;24301;54.332;48.386;2023-05-16T05:39:51;99558.09;;;22.93;41.78
38530;BME280;24301;54.332;48.386;2023-05-16T05:42:17;99559.47;;;23.16;40.61
38530;BME280;24301;54.332;48.386;2023-05-16T05:44:43;99573.28;;;23.24;40.88
38530;BME280;24301;54.332;48.386;2023-05-16T05:47:09;99565.16;;;23.42;39.36
38530;BME280;24301;54.332;48.386;2023-05-16T05:49:36;99575.81;;;23.28;39.96
38530;BME280;24301;54.332;48.386;2023-05-16T05:52:02;99587.50;;;22.94;40.80
38530;BME280;24301;54.332;48.386;2023-05-16T05:54:28;99581.88;;;23.62;39.47
38530;BME280;24301;54.332;48.386;2023-05-16T05:56:56;99609.81;;;23.58;39.08
38530;BME280;24301;54.332;48.386;2023-05-16T05:59:24;99576.97;;;23.99;38.93
38530;BME280;24301;54.332;48.386;2023-05-16T06:01:51;99583.81;;;24.19;38.34
38530;BME280;24301;54.332;48.386;2023-05-16T06:04:18;99571.88;;;24.39;37.88
38530;BME280;24301;54.332;48.386;2023-05-16T06:06:44;99568.31;;;24.53;37.82
38530;BME280;24301;54.332;48.386;2023-05-16T06:09:11;99572.31;;;24.61;37.44
38530;BME280;24301;54.332;48.386;2023-05-16T06:11:38;99578.28;;;25.08;36.70
38530;BME280;24301;54.332;48.386;2023-05-16T06:14:06;99579.03;;;25.37;36.02
38530;BME280;24301;54.332;48.386;2023-05-16T06:16:32;99575.69;;;25.34;35.55
38530;BME280;24301;54.332;48.386;2023-05-16T06:18:58;99586.94;;;25.26;36.11
38530;BME280;24301;54.332;48.386;2023-05-16T06:21:25;99580.22;;;25.06;35.34
38530;BME280;24301;54.332;48.386;2023-05-16T06:23:51;99596.81;;;24.98;35.63
38530;BME280;24301;54.332;48.386;2023-05-16T06:26:16;99582.00;;;25.47;34.91
38530;BME280;24301;54.332;48.386;2023-05-16T06:28:42;99603.00;;;26.21;34.35
38530;BME280;24301;54.332;48.386;2023-05-16T06:31:08;99593.47;;;27.18;33.03
38530;BME280;24301;54.332;48.386;2023-05-16T06:33:34;99586.91;;;26.85;32.18
38530;BME280;24301;54.332;48.386;2023-05-16T06:36:00;99602.19;;;25.80;33.51
38530;BME280;24301;54.332;48.386;2023-05-16T06:38:26;99597.50;;;25.02;34.74
38530;BME280;24301;54.332;48.386;2023-05-16T06:41:07;99604.53;;;24.17;35.91
38530;BME280;24301;54.332;48.386;2023-05-16T06:43:59;99615.16;;;23.43;36.94
38530;BME280;24301;54.332;48.386;2023-05-16T06:46:30;99605.97;;;23.47;37.34
38530;BME280;24301;54.332;48.386;2023-05-16T06:49:03;99601.31;;;23.03;38.23
38530;BME280;24301;54.332;48.386;2023-05-16T06:51:36;99603.22;;;23.33;38.38
38530;BME280;24301;54.332;48.386;2023-05-16T06:54:10;99606.19;;;23.89;37.33
38530;BME280;24301;54.332;48.386;2023-05-16T06:56:37;99624.09;;;24.48;36.56
38530;BME280;24301;54.332;48.386;2023-05-16T06:59:03;99596.22;;;24.65;36.07
38530;BME280;24301;54.332;48.386;2023-05-16T07:01:29;99604.47;;;23.88;36.49
38530;BME280;24301;54.332;48.386;2023-05-16T07:03:55;99614.00;;;22.67;38.90
38530;BME280;24301;54.332;48.386;2023-05-16T07:06:28;99600.16;;;24.00;37.53
38530;BME280;24301;54.332;48.386;2023-05-16T07:08:53;99613.41;;;24.77;34.76
38530;BME280;24301;54.332;48.386;2023-05-16T07:11:22;99604.88;;;24.98;34.72
38530;BME280;24301;54.332;48.386;2023-05-16T07:13:48;99603.16;;;25.39;33.82
38530;BME280;24301;54.332;48.386;2023-05-16T07:16:14;99608.06;;;26.39;32.08
38530;BME280;24301;54.332;48.386;2023-05-16T07:18:40;99600.41;;;27.09;31.05
38530;BME280;24301;54.332;48.386;2023-05-16T07:21:09;99591.47;;;27.08;30.45
38530;BME280;24301;54.332;48.386;2023-05-16T07:23:35;99585.97;;;27.59;30.37
38530;BME280;24301;54.332;48.386;2023-05-16T07:26:02;99599.22;;;27.62;29.43
38530;BME280;24301;54.332;48.386;2023-05-16T07:28:27;99592.72;;;28.11;29.08
38530;BME280;24301;54.332;48.386;2023-05-16T07:30:53;99603.19;;;28.16;29.23
38530;BME280;24301;54.332;48.386;2023-05-16T07:33:19;99602.09;;;28.76;28.78
38530;BME280;24301;54.332;48.386;2023-05-16T07:35:45;99590.81;;;28.82;27.80
38530;BME280;24301;54.332;48.386;2023-05-16T07:38:11;99590.88;;;27.65;28.84
38530;BME280;24301;54.332;48.386;2023-05-16T07:40:37;99589.28;;;27.38;29.11
38530;BME280;24301;54.332;48.386;2023-05-16T07:43:03;99588.03;;;27.31;29.11
38530;BME280;24301;54.332;48.386;2023-05-16T07:45:29;99600.25;;;26.86;29.53
38530;BME280;24301;54.332;48.386;2023-05-16T07:47:55;99593.69;;;25.46;30.68
38530;BME280;24301;54.332;48.386;2023-05-16T07:50:21;99595.06;;;24.41;32.34
38530;BME280;24301;54.332;48.386;2023-05-16T07:52:47;99588.59;;;23.69;34.11
38530;BME280;24301;54.332;48.386;2023-05-16T07:55:12;99583.72;;;24.93;32.89
38530;BME280;24301;54.332;48.386;2023-05-16T07:57:38;99599.47;;;26.21;31.25
38530;BME280;24301;54.332;48.386;2023-05-16T08:00:05;99594.69;;;25.99;30.98
38530;BME280;24301;54.332;48.386;2023-05-16T08:02:38;99590.44;;;24.86;32.72
38530;BME280;24301;54.332;48.386;2023-05-16T08:05:05;99590.28;;;24.46;33.81
38530;BME280;24301;54.332;48.386;2023-05-16T08:07:31;99587.53;;;23.57;35.16
38530;BME280;24301;54.332;48.386;2023-05-16T08:09:57;99586.44;;;22.81;36.38
38530;BME280;24301;54.332;48.386;2023-05-16T08:12:23;99600.38;;;21.87;38.36
38530;BME280;24301;54.332;48.386;2023-05-16T08:14:49;99599.84;;;21.43;39.41
38530;BME280;24301;54.332;48.386;2023-05-16T08:17:15;99594.88;;;20.79;40.54
38530;BME280;24301;54.332;48.386;2023-05-16T08:19:41;99594.25;;;20.34;42.33
38530;BME280;24301;54.332;48.386;2023-05-16T08:22:08;99597.47;;;20.41;42.06
38530;BME280;24301;54.332;48.386;2023-05-16T08:24:34;99593.06;;;20.40;42.19
38530;BME280;24301;54.332;48.386;2023-05-16T08:27:00;99598.34;;;20.42;42.21
38530;BME280;24301;54.332;48.386;2023-05-16T08:29:26;99592.38;;;20.36;42.11
38530;BME280;24301;54.332;48.386;2023-05-16T08:31:52;99600.84;;;20.26;42.83
38530;BME280;24301;54.332;48.386;2023-05-16T08:34:18;99596.50;;;20.23;43.31
38530;BME280;24301;54.332;48.386;2023-05-16T08:36:44;99601.78;;;20.24;43.27
38530;BME280;24301;54.332;48.386;2023-05-16T08:39:09;99585.50;;;20.31;43.14
38530;BME280;24301;54.332;48.386;2023-05-16T08:41:36;99588.94;;;20.14;43.76
38530;BME280;24301;54.332;48.386;2023-05-16T08:44:07;99592.09;;;20.22;43.46
38530;BME280;24301;54.332;48.386;2023-05-16T08:46:35;99589.31;;;20.25;43.71
38530;BME280;24301;54.332;48.386;2023-05-16T08:49:03;99598.44;;;20.19;43.64
38530;BME280;24301;54.332;48.386;2023-05-16T08:51:32;99581.59;;;20.38;43.17
38530;BME280;24301;54.332;48.386;2023-05-16T08:54:10;99593.69;;;20.26;43.71
38530;BME280;24301;54.332;48.386;2023-05-16T08:56:38;99586.78;;;20.01;43.43
38530;BME280;24301;54.332;48.386;2023-05-16T08:59:06;99579.69;;;19.79;44.21
38530;BME280;24301;54.332;48.386;2023-05-16T09:01:33;99581.97;;;19.68;44.25
38530;BME280;24301;54.332;48.386;2023-05-16T09:03:59;99593.38;;;19.72;44.17
38530;BME280;24301;54.332;48.386;2023-05-16T09:06:26;99595.88;;;19.97;43.80
38530;BME280;24301;54.332;48.386;2023-05-16T09:08:53;99584.63;;;20.30;43.33
38530;BME280;24301;54.332;48.386;2023-05-16T09:11:19;99579.19;;;20.52;42.70
38530;BME280;24301;54.332;48.386;2023-05-16T09:13:48;99591.66;;;20.12;43.29
38530;BME280;24301;54.332;48.386;2023-05-16T09:16:18;99579.34;;;20.09;43.47
38530;BME280;24301;54.332;48.386;2023-05-16T09:18:52;99586.59;;;20.06;43.34
38530;BME280;24301;54.332;48.386;2023-05-16T09:21:19;99568.44;;;19.93;43.50
38530;BME280;24301;54.332;48.386;2023-05-16T09:23:48;99570.22;;;19.51;44.60
38530;BME280;24301;54.332;48.386;2023-05-16T09:26:14;99576.34;;;19.53;44.70
38530;BME280;24301;54.332;48.386;2023-05-16T09:28:40;99575.09;;;19.62;44.67
38530;BME280;24301;54.332;48.386;2023-05-16T09:31:24;99565.50;;;19.58;44.37
38530;BME280;24301;54.332;48.386;2023-05-16T09:33:56;99570.09;;;19.55;44.53
38530;BME280;24301;54.332;48.386;2023-05-16T09:36:22;99564.56;;;19.80;44.31
38530;BME280;24301;54.332;48.386;2023-05-16T09:38:51;99575.44;;;19.75;43.82
38530;BME280;24301;54.332;48.386;2023-05-16T09:41:17;99564.06;;;19.72;43.65
38530;BME280;24301;54.332;48.386;2023-05-16T09:43:44;99566.91;;;19.67;43.65
38530;BME280;24301;54.332;48.386;2023-05-16T09:46:13;99570.44;;;19.88;43.38
38530;BME280;24301;54.332;48.386;2023-05-16T09:48:46;99567.97;;;20.04;43.08
38530;BME280;24301;54.332;48.386;2023-05-16T09:51:13;99570.06;;;19.98;43.03
38530;BME280;24301;54.332;48.386;2023-05-16T09:53:40;99559.84;;;20.07;43.36
38530;BME280;24301;54.332;48.386;2023-05-16T09:56:09;99565.94;;;20.30;42.67
38530;BME280;24301;54.332;48.386;2023-05-16T09:58:37;99566.72;;;20.32;42.37
38530;BME280;24301;54.332;48.386;2023-05-16T10:01:04;99552.22;;;20.19;42.21
38530;BME280;24301;54.332;48.386;2023-05-16T10:03:39;99560.56;;;19.90;42.78
38530;BME280;24301;54.332;48.386;2023-05-16T10:06:06;99564.19;;;20.10;42.66
38530;BME280;24301;54.332;48.386;2023-05-16T10:08:33;99558.38;;;20.21;42.38
38530;BME280;24301;54.332;48.386;2023-05-16T10:11:02;99554.22;;;20.34;42.14
38530;BME280;24301;54.332;48.386;2023-05-16T10:13:33;99553.19;;;20.37;41.60
38530;BME280;24301;54.332;48.386;2023-05-16T10:16:05;99548.28;;;20.28;41.65
38530;BME280;24301;54.332;48.386;2023-05-16T10:18:32;99561.13;;;20.58;41.65
38530;BME280;24301;54.332;48.386;2023-05-16T10:21:07;99556.09;;;20.90;41.02
38530;BME280;24301;54.332;48.386;2023-05-16T10:23:36;99543.94;;;21.02;40.07
38530;BME280;24301;54.332;48.386;2023-05-16T10:26:03;99545.81;;;21.00;40.57
38530;BME280;24301;54.332;48.386;2023-05-16T10:28:31;99563.22;;;21.08;40.41
38530;BME280;24301;54.332;48.386;2023-05-16T10:30:58;99545.94;;;21.16;39.80
38530;BME280;24301;54.332;48.386;2023-05-16T10:33:25;99544.41;;;20.92;39.97
38530;BME280;24301;54.332;48.386;2023-05-16T10:35:51;99544.13;;;20.79;40.37
38530;BME280;24301;54.332;48.386;2023-05-16T10:38:18;99550.09;;;20.65;40.58
38530;BME280;24301;54.332;48.386;2023-05-16T10:40:46;99548.88;;;20.73;40.73
38530;BME280;24301;54.332;48.386;2023-05-16T10:43:25;99548.00;;;20.53;40.16
38530;BME280;24301;54.332;48.386;2023-05-16T10:45:57;99542.16;;;20.64;40.65
38530;BME280;24301;54.332;48.386;2023-05-16T10:48:34;99540.06;;;20.71;40.60
38530;BME280;24301;54.332;48.386;2023-05-16T10:51:02;99545.03;;;20.78;40.42
38530;BME280;24301;54.332;48.386;2023-05-16T10:53:33;99546.81;;;20.79;40.61
38530;BME280;24301;54.332;48.386;2023-05-16T11:01:20;99544.13;;;20.60;40.02
38530;BME280;24301;54.332;48.386;2023-05-16T11:06:32;99539.00;;;20.36;40.08
38530;BME280;24301;54.332;48.386;2023-05-16T11:11:44;99539.31;;;20.09;40.61
38530;BME280;24301;54.332;48.386;2023-05-16T11:17:13;99539.97;;;20.15;41.14
38530;BME280;24301;54.332;48.386;2023-05-16T11:24:52;99530.84;;;20.39;40.48
38530;BME280;24301;54.332;48.386;2023-05-16T11:27:42;99526.06;;;20.27;40.81
38530;BME280;24301;54.332;48.386;2023-05-16T11:32:36;99529.16;;;20.18;41.45
38530;BME280;24301;54.332;48.386;2023-05-16T11:35:04;99518.69;;;20.32;41.44
38530;BME280;24301;54.332;48.386;2023-05-16T11:37:31;99521.94;;;20.20;41.90
38530;BME280;24301;54.332;48.386;2023-05-16T11:40:00;99518.09;;;20.06;42.78
38530;BME280;24301;54.332;48.386;2023-05-16T11:42:33;99524.75;;;19.98;43.13
38530;BME280;24301;54.332;48.386;2023-05-16T11:47:32;99526.69;;;20.13;43.70
38530;BME280;24301;54.332;48.386;2023-05-16T11:49:58;99529.31;;;20.15;43.55
38530;BME280;24301;54.332;48.386;2023-05-16T11:52:24;99513.69;;;20.05;43.74
38530;BME280;24301;54.332;48.386;2023-05-16T11:54:51;99516.75;;;19.98;44.27
38530;BME280;24301;54.332;48.386;2023-05-16T11:57:17;99519.81;;;20.07;44.47
38530;BME280;24301;54.332;48.386;2023-05-16T11:59:43;99520.41;;;19.95;44.91
38530;BME280;24301;54.332;48.386;2023-05-16T12:02:14;99520.09;;;20.01;44.63
38530;BME280;24301;54.332;48.386;2023-05-16T12:04:40;99512.66;;;20.09;44.29
38530;BME280;24301;54.332;48.386;2023-05-16T12:07:06;99516.38;;;20.05;44.67
38530;BME280;24301;54.332;48.386;2023-05-16T12:09:32;99514.63;;;20.04;44.60
38530;BME280;24301;54.332;48.386;2023-05-16T12:11:58;99517.44;;;19.80;44.78
38530;BME280;24301;54.332;48.386;2023-05-16T12:14:24;99523.47;;;19.65;45.50
38530;BME280;24301;54.332;48.386;2023-05-16T12:16:53;99508.44;;;19.62;45.44
38530;BME280;24301;54.332;48.386;2023-05-16T12:19:20;99515.75;;;19.59;45.00
38530;BME280;24301;54.332;48.386;2023-05-16T12:21:46;99522.81;;;19.60;44.81
38530;BME280;24301;54.332;48.386;2023-05-16T12:24:12;99518.13;;;19.65;44.78
38530;BME280;24301;54.332;48.386;2023-05-16T12:26:39;99523.59;;;19.62;44.91
38530;BME280;24301;54.332;48.386;2023-05-16T12:29:06;99505.00;;;19.60;44.61
38530;BME280;24301;54.332;48.386;2023-05-16T12:31:36;99523.91;;;19.54;44.70
38530;BME280;24301;54.332;48.386;2023-05-16T12:34:03;99527.72;;;19.48;45.28
38530;BME280;24301;54.332;48.386;2023-05-16T12:36:33;99538.84;;;19.58;45.24
38530;BME280;24301;54.332;48.386;2023-05-16T12:39:00;99518.84;;;19.68;44.73
38530;BME280;24301;54.332;48.386;2023-05-16T12:41:29;99539.31;;;19.68;44.59
38530;BME280;24301;54.332;48.386;2023-05-16T12:44:09;99509.06;;;19.69;44.14
38530;BME280;24301;54.332;48.386;2023-05-16T12:46:40;99548.38;;;19.64;43.98
38530;BME280;24301;54.332;48.386;2023-05-16T12:49:07;99522.38;;;19.48;43.93
38530;BME280;24301;54.332;48.386;2023-05-16T12:51:32;99528.59;;;19.49;43.99
38530;BME280;24301;54.332;48.386;2023-05-16T12:54:09;99525.78;;;19.52;44.15
38530;BME280;24301;54.332;48.386;2023-05-16T12:56:40;99526.84;;;19.48;44.64
38530;BME280;24301;54.332;48.386;2023-05-16T12:59:07;99515.84;;;19.35;44.36
38530;BME280;24301;54.332;48.386;2023-05-16T13:01:34;99534.56;;;19.33;45.27
38530;BME280;24301;54.332;48.386;2023-05-16T13:04:01;99516.31;;;19.24;44.95
38530;BME280;24301;54.332;48.386;2023-05-16T13:06:29;99522.88;;;19.15;45.90
38530;BME280;24301;54.332;48.386;2023-05-16T13:08:55;99550.63;;;19.09;46.14
38530;BME280;24301;54.332;48.386;2023-05-16T13:11:23;99524.06;;;19.08;45.89
38530;BME280;24301;54.332;48.386;2023-05-16T13:13:49;99532.97;;;19.07;45.89
38530;BME280;24301;54.332;48.386;2023-05-16T13:16:15;99522.31;;;19.07;46.23
38530;BME280;24301;54.332;48.386;2023-05-16T13:18:42;99548.75;;;19.12;46.41
38530;BME280;24301;54.332;48.386;2023-05-16T13:21:09;99520.56;;;19.06;46.70
38530;BME280;24301;54.332;48.386;2023-05-16T13:23:35;99511.56;;;19.10;46.60
38530;BME280;24301;54.332;48.386;2023-05-16T13:26:01;99533.22;;;19.01;46.51
38530;BME280;24301;54.332;48.386;2023-05-16T13:28:27;99510.28;;;18.96;45.74
38530;BME280;24301;54.332;48.386;2023-05-16T13:30:53;99506.69;;;18.98;45.70